sensor_id;sensor_type;location;lat;lon;timestamp;pressure;altitude;pressure_sealevel;temperature;humidity
35910;BME280;22004;49.120;-0.200;2023-11-21T00:02:21;101256.38;;;12.57;100.00
35910;BME280;22004;49.120;-0.200;2023-11-21T00:04:48;101257.56;;;12.54;100.00
35910;BME280;22004;49.120;-0.200;2023-11-21T00:07:13;101264.94;;;12.60;100.00
35910;BME280;22004;49.120;-0.200;2023-11-21T00:09:40;101248.22;;;12.65;100.00
35910;BME280;22004;49.120;-0.200;2023-11-21T00:12:05;101254.75;;;12.71;100.00
35910;BME280;22004;49.120;-0.200;2023-11-21T00:14:31;101253.25;;;12.68;100.00
35910;BME280;22004;49.120;-0.200;2023-11-21T00:16:56;101258.38;;;12.78;100.00
35910;BME280;22004;49.120;-0.200;2023-11-21T00:19:21;101250.41;;;12.84;100.00
35910;BME280;22004;49.120;-0.200;2023-11-21T00:21:47;101257.44;;;12.71;100.00
35910;BME280;22004;49.120;-0.200;2023-11-21T00:24:12;101254.28;;;12.82;100.00
35910;BME280;22004;49.120;-0.200;2023-11-21T00:26:39;101266.19;;;12.87;100.00
35910;BME280;22004;49.120;-0.200;2023-11-21T00:29:05;101267.41;;;12.85;100.00
35910;BME280;22004;49.120;-0.200;2023-11-21T00:31:34;101266.03;;;12.89;100.00
35910;BME280;22004;49.120;-0.200;2023-11-21T00:34:04;101266.63;;;13.14;100.00
35910;BME280;22004;49.120;-0.200;2023-11-21T00:36:31;101268.66;;;13.12;100.00
35910;BME280;22004;49.120;-0.200;2023-11-21T00:38:57;101260.31;;;13.22;99.87
35910;BME280;22004;49.120;-0.200;2023-11-21T00:41:22;101264.25;;;12.96;100.00
35910;BME280;22004;49.120;-0.200;2023-11-21T00:43:47;101271.28;;;12.82;100.00
35910;BME280;22004;49.120;-0.200;2023-11-21T00:46:13;101264.03;;;12.68;100.00
35910;BME280;22004;49.120;-0.200;2023-11-21T00:48:38;101270.56;;;12.28;100.00
35910;BME280;22004;49.120;-0.200;2023-11-21T00:51:04;101282.25;;;12.12;100.00
35910;BME280;22004;49.120;-0.200;2023-11-21T00:53:31;101284.00;;;12.28;100.00
35910;BME280;22004;49.120;-0.200;2023-11-21T00:55:57;101287.78;;;12.19;100.00
35910;BME280;22004;49.120;-0.200;2023-11-21T00:58:25;101286.00;;;12.34;100.00
35910;BME280;22004;49.120;-0.200;2023-11-21T01:00:51;101283.53;;;12.47;100.00
35910;BME280;22004;49.120;-0.200;2023-11-21T01:03:16;101288.75;;;12.49;100.00
35910;BME280;22004;49.120;-0.200;2023-11-21T01:05:42;101282.28;;;12.35;100.00
35910;BME280;22004;49.120;-0.200;2023-11-21T01:08:07;101281.69;;;12.48;100.00
35910;BME280;22004;49.120;-0.200;2023-11-21T01:10:32;101287.31;;;12.38;100.00
35910;BME280;22004;49.120;-0.200;2023-11-21T01:12:59;101291.63;;;12.47;100.00
35910;BME280;22004;49.120;-0.200;2023-11-21T01:15:25;101296.97;;;12.55;100.00
35910;BME280;22004;49.120;-0.200;2023-11-21T01:17:51;101293.19;;;12.41;100.00
35910;BME280;22004;49.120;-0.200;2023-11-21T01:20:17;101301.25;;;12.41;100.00
35910;BME280;22004;49.120;-0.200;2023-11-21T01:22:42;101311.97;;;12.50;100.00
35910;BME280;22004;49.120;-0.200;2023-11-21T01:25:08;101308.66;;;12.16;100.00
35910;BME280;22004;49.120;-0.200;2023-11-21T01:27:34;101313.63;;;12.28;100.00
35910;BME280;22004;49.120;-0.200;2023-11-21T01:30:01;101320.94;;;12.19;100.00
35910;BME280;22004;49.120;-0.200;2023-11-21T01:32:26;101308.25;;;12.28;100.00
35910;BME280;22004;49.120;-0.200;2023-11-21T01:34:51;101309.47;;;11.94;100.00
35910;BME280;22004;49.120;-0.200;2023-11-21T01:37:17;101318.53;;;11.93;100.00
35910;BME280;22004;49.120;-0.200;2023-11-21T01:39:43;101316.78;;;12.08;100.00
35910;BME280;22004;49.120;-0.200;2023-11-21T01:42:10;101327.88;;;12.36;100.00
35910;BME280;22004;49.120;-0.200;2023-11-21T01:44:38;101320.28;;;12.40;100.00
35910;BME280;22004;49.120;-0.200;2023-11-21T01:47:05;101327.00;;;12.67;100.00
35910;BME280;22004;49.120;-0.200;2023-11-21T01:49:35;101322.31;;;12.61;100.00
35910;BME280;22004;49.120;-0.200;2023-11-21T01:52:01;101324.53;;;12.34;100.00
35910;BME280;22004;49.120;-0.200;2023-11-21T01:54:27;101326.03;;;12.60;100.00
35910;BME280;22004;49.120;-0.200;2023-11-21T01:56:53;101329.03;;;12.42;100.00
35910;BME280;22004;49.120;-0.200;2023-11-21T01:59:20;101336.44;;;12.40;100.00
35910;BME280;22004;49.120;-0.200;2023-11-21T02:01:49;101332.38;;;12.44;100.00
35910;BME280;22004;49.120;-0.200;2023-11-21T02:04:15;101341.59;;;12.50;100.00
35910;BME280;22004;49.120;-0.200;2023-11-21T02:06:41;101342.03;;;12.38;100.00
35910;BME280;22004;49.120;-0.200;2023-11-21T02:09:06;101344.00;;;12.67;100.00
35910;BME280;22004;49.120;-0.200;2023-11-21T02:11:31;101341.28;;;12.67;100.00
35910;BME280;22004;49.120;-0.200;2023-11-21T02:14:00;101349.75;;;12.64;100.00
35910;BME280;22004;49.120;-0.200;2023-11-21T02:16:26;101350.09;;;12.38;100.00
35910;BME280;22004;49.120;-0.200;2023-11-21T02:18:52;101359.25;;;12.29;100.00
35910;BME280;22004;49.120;-0.200;2023-11-21T02:21:17;101351.69;;;12.25;100.00
35910;BME280;22004;49.120;-0.200;2023-11-21T02:23:44;101354.41;;;12.16;100.00
35910;BME280;22004;49.120;-0.200;2023-11-21T02:26:12;101357.50;;;12.05;100.00
35910;BME280;22004;49.120;-0.200;2023-11-21T02:28:37;101360.00;;;12.07;100.00
35910;BME280;22004;49.120;-0.200;2023-11-21T02:31:04;101352.22;;;12.20;100.00
35910;BME280;22004;49.120;-0.200;2023-11-21T02:33:30;101354.59;;;12.15;100.00
35910;BME280;22004;49.120;-0.200;2023-11-21T02:35:59;101351.50;;;12.26;100.00
35910;BME280;22004;49.120;-0.200;2023-11-21T02:38:24;101351.28;;;12.05;100.00
35910;BME280;22004;49.120;-0.200;2023-11-21T02:40:50;101356.22;;;12.24;100.00
35910;BME280;22004;49.120;-0.200;2023-11-21T02:43:15;101350.69;;;12.18;100.00
35910;BME280;22004;49.120;-0.200;2023-11-21T02:45:40;101361.22;;;12.35;100.00
35910;BME280;22004;49.120;-0.200;2023-11-21T02:48:07;101360.00;;;12.38;100.00
35910;BME280;22004;49.120;-0.200;2023-11-21T02:50:32;101358.56;;;12.58;100.00
35910;BME280;22004;49.120;-0.200;2023-11-21T02:52:58;101359.56;;;12.57;100.00
35910;BME280;22004;49.120;-0.200;2023-11-21T02:55:26;101360.69;;;12.63;100.00
35910;BME280;22004;49.120;-0.200;2023-11-21T02:57:51;101360.69;;;12.86;100.00
35910;BME280;22004;49.120;-0.200;2023-11-21T03:00:16;101361.44;;;12.80;100.00
35910;BME280;22004;49.120;-0.200;2023-11-21T03:02:42;101364.47;;;12.77;100.00
35910;BME280;22004;49.120;-0.200;2023-11-21T03:05:09;101369.94;;;12.68;100.00
35910;BME280;22004;49.120;-0.200;2023-11-21T03:07:36;101366.88;;;12.72;100.00
35910;BME280;22004;49.120;-0.200;2023-11-21T03:10:02;101366.75;;;12.65;100.00
35910;BME280;22004;49.120;-0.200;2023-11-21T03:12:28;101371.19;;;12.81;100.00
35910;BME280;22004;49.120;-0.200;2023-11-21T03:14:53;101372.50;;;12.85;100.00
35910;BME280;22004;49.120;-0.200;2023-11-21T03:17:19;101379.63;;;13.01;100.00
35910;BME280;22004;49.120;-0.200;2023-11-21T03:19:44;101377.09;;;12.53;100.00
35910;BME280;22004;49.120;-0.200;2023-11-21T03:22:10;101367.97;;;12.31;100.00
35910;BME280;22004;49.120;-0.200;2023-11-21T03:24:36;101379.38;;;12.64;100.00
35910;BME280;22004;49.120;-0.200;2023-11-21T03:27:03;101379.38;;;12.64;100.00
35910;BME280;22004;49.120;-0.200;2023-11-21T03:29:29;101373.84;;;12.58;100.00
35910;BME280;22004;49.120;-0.200;2023-11-21T03:31:54;101367.84;;;12.48;100.00
35910;BME280;22004;49.120;-0.200;2023-11-21T03:34:24;101374.72;;;12.58;100.00
35910;BME280;22004;49.120;-0.200;2023-11-21T03:36:51;101373.53;;;12.84;100.00
35910;BME280;22004;49.120;-0.200;2023-11-21T03:39:16;101377.53;;;12.88;100.00
35910;BME280;22004;49.120;-0.200;2023-11-21T03:41:41;101383.59;;;12.90;100.00
35910;BME280;22004;49.120;-0.200;2023-11-21T03:44:07;101380.81;;;12.75;100.00
35910;BME280;22004;49.120;-0.200;2023-11-21T03:46:32;101378.91;;;12.84;100.00
35910;BME280;22004;49.120;-0.200;2023-11-21T03:48:57;101379.38;;;12.87;100.00
35910;BME280;22004;49.120;-0.200;2023-11-21T03:51:23;101389.56;;;12.77;100.00
35910;BME280;22004;49.120;-0.200;2023-11-21T03:53:48;101391.53;;;12.60;100.00
35910;BME280;22004;49.120;-0.200;2023-11-21T03:56:14;101392.50;;;12.90;100.00
35910;BME280;22004;49.120;-0.200;2023-11-21T03:58:39;101408.91;;;12.81;100.00
35910;BME280;22004;49.120;-0.200;2023-11-21T04:01:05;101414.94;;;12.60;100.00
35910;BME280;22004;49.120;-0.200;2023-11-21T04:03:30;101413.53;;;12.33;100.00
35910;BME280;22004;49.120;-0.200;2023-11-21T04:05:56;101423.63;;;12.39;100.00
35910;BME280;22004;49.120;-0.200;2023-11-21T04:08:22;101412.50;;;12.42;100.00
35910;BME280;22004;49.120;-0.200;2023-11-21T04:10:47;101422.41;;;12.50;100.00
35910;BME280;22004;49.120;-0.200;2023-11-21T04:13:13;101429.88;;;12.31;100.00
35910;BME280;22004;49.120;-0.200;2023-11-21T04:15:39;101431.63;;;12.16;100.00
35910;BME280;22004;49.120;-0.200;2023-11-21T04:18:04;101423.16;;;12.27;100.00
35910;BME280;22004;49.120;-0.200;2023-11-21T04:20:29;101431.66;;;12.47;100.00
35910;BME280;22004;49.120;-0.200;2023-11-21T04:22:55;101431.94;;;12.60;100.00
35910;BME280;22004;49.120;-0.200;2023-11-21T04:25:20;101435.22;;;12.08;100.00
35910;BME280;22004;49.120;-0.200;2023-11-21T04:27:46;101435.69;;;12.51;100.00
35910;BME280;22004;49.120;-0.200;2023-11-21T04:30:12;101435.25;;;12.71;100.00
35910;BME280;22004;49.120;-0.200;2023-11-21T04:32:38;101434.00;;;12.50;100.00
35910;BME280;22004;49.120;-0.200;2023-11-21T04:35:04;101439.81;;;12.93;100.00
35910;BME280;22004;49.120;-0.200;2023-11-21T04:37:30;101440.50;;;12.64;100.00
35910;BME280;22004;49.120;-0.200;2023-11-21T04:39:55;101437.50;;;12.59;100.00
35910;BME280;22004;49.120;-0.200;2023-11-21T04:42:21;101439.31;;;12.66;100.00
35910;BME280;22004;49.120;-0.200;2023-11-21T04:44:47;101450.44;;;12.63;100.00
35910;BME280;22004;49.120;-0.200;2023-11-21T04:47:12;101438.19;;;12.53;100.00
35910;BME280;22004;49.120;-0.200;2023-11-21T04:49:39;101442.44;;;12.47;100.00
35910;BME280;22004;49.120;-0.200;2023-11-21T04:52:05;101449.53;;;12.48;100.00
35910;BME280;22004;49.120;-0.200;2023-11-21T04:54:30;101450.06;;;12.35;100.00
35910;BME280;22004;49.120;-0.200;2023-11-21T04:56:56;101459.69;;;12.30;100.00
35910;BME280;22004;49.120;-0.200;2023-11-21T04:59:21;101455.66;;;12.26;100.00
35910;BME280;22004;49.120;-0.200;2023-11-21T05:01:50;101459.06;;;12.20;100.00
35910;BME280;22004;49.120;-0.200;2023-11-21T05:04:15;101462.31;;;12.38;100.00
35910;BME280;22004;49.120;-0.200;2023-11-21T05:06:40;101464.56;;;12.34;100.00
35910;BME280;22004;49.120;-0.200;2023-11-21T05:09:06;101466.75;;;12.62;100.00
35910;BME280;22004;49.120;-0.200;2023-11-21T05:11:36;101469.44;;;12.70;100.00
35910;BME280;22004;49.120;-0.200;2023-11-21T05:14:02;101474.94;;;12.77;100.00
35910;BME280;22004;49.120;-0.200;2023-11-21T05:16:29;101475.13;;;12.75;100.00
35910;BME280;22004;49.120;-0.200;2023-11-21T05:18:54;101468.22;;;13.04;100.00
35910;BME280;22004;49.120;-0.200;2023-11-21T05:21:25;101474.00;;;12.92;100.00
35910;BME280;22004;49.120;-0.200;2023-11-21T05:23:51;101476.88;;;12.60;100.00
35910;BME280;22004;49.120;-0.200;2023-11-21T05:26:16;101481.13;;;12.54;100.00
35910;BME280;22004;49.120;-0.200;2023-11-21T05:28:41;101483.00;;;12.54;100.00
35910;BME280;22004;49.120;-0.200;2023-11-21T05:31:07;101482.63;;;12.57;100.00
35910;BME280;22004;49.120;-0.200;2023-11-21T05:33:32;101489.81;;;12.33;100.00
35910;BME280;22004;49.120;-0.200;2023-11-21T05:35:58;101499.50;;;12.51;100.00
35910;BME280;22004;49.120;-0.200;2023-11-21T05:38:23;101504.91;;;12.42;100.00
35910;BME280;22004;49.120;-0.200;2023-11-21T05:40:49;101509.44;;;12.42;100.00
35910;BME280;22004;49.120;-0.200;2023-11-21T05:43:15;101509.75;;;12.00;100.00
35910;BME280;22004;49.120;-0.200;2023-11-21T05:45:40;101508.41;;;12.04;100.00
35910;BME280;22004;49.120;-0.200;2023-11-21T05:48:06;101502.28;;;12.18;100.00
35910;BME280;22004;49.120;-0.200;2023-11-21T05:50:31;101507.47;;;12.28;100.00
35910;BME280;22004;49.120;-0.200;2023-11-21T05:52:57;101509.16;;;12.29;100.00
35910;BME280;22004;49.120;-0.200;2023-11-21T05:55:25;101514.56;;;12.21;100.00
35910;BME280;22004;49.120;-0.200;2023-11-21T05:57:51;101516.41;;;12.20;100.00
35910;BME280;22004;49.120;-0.200;2023-11-21T06:00:17;101517.41;;;12.27;100.00
35910;BME280;22004;49.120;-0.200;2023-11-21T06:02:49;101516.25;;;12.22;100.00
35910;BME280;22004;49.120;-0.200;2023-11-21T06:05:23;101522.50;;;12.06;100.00
35910;BME280;22004;49.120;-0.200;2023-11-21T06:07:49;101518.84;;;12.46;100.00
35910;BME280;22004;49.120;-0.200;2023-11-21T06:10:15;101521.25;;;12.33;100.00
35910;BME280;22004;49.120;-0.200;2023-11-21T06:12:43;101526.50;;;12.18;100.00
35910;BME280;22004;49.120;-0.200;2023-11-21T06:15:09;101527.63;;;12.40;100.00
35910;BME280;22004;49.120;-0.200;2023-11-21T06:17:37;101539.44;;;12.39;100.00
35910;BME280;22004;49.120;-0.200;2023-11-21T06:20:06;101542.91;;;12.56;100.00
35910;BME280;22004;49.120;-0.200;2023-11-21T06:22:44;101540.47;;;12.30;100.00
35910;BME280;22004;49.120;-0.200;2023-11-21T06:25:10;101546.34;;;12.33;100.00
35910;BME280;22004;49.120;-0.200;2023-11-21T06:27:39;101548.78;;;12.59;100.00
35910;BME280;22004;49.120;-0.200;2023-11-21T06:30:06;101546.63;;;12.47;100.00
35910;BME280;22004;49.120;-0.200;2023-11-21T06:32:32;101547.06;;;12.66;100.00
35910;BME280;22004;49.120;-0.200;2023-11-21T06:34:57;101545.91;;;12.61;100.00
35910;BME280;22004;49.120;-0.200;2023-11-21T06:37:28;101547.13;;;12.50;100.00
35910;BME280;22004;49.120;-0.200;2023-11-21T06:39:54;101541.22;;;12.55;100.00
35910;BME280;22004;49.120;-0.200;2023-11-21T06:42:20;101548.03;;;12.34;100.00
35910;BME280;22004;49.120;-0.200;2023-11-21T06:44:46;101553.88;;;12.38;100.00
35910;BME280;22004;49.120;-0.200;2023-11-21T06:47:12;101555.25;;;12.34;100.00
35910;BME280;22004;49.120;-0.200;2023-11-21T06:49:37;101564.00;;;12.28;100.00
35910;BME280;22004;49.120;-0.200;2023-11-21T06:52:03;101569.06;;;12.31;100.00
35910;BME280;22004;49.120;-0.200;2023-11-21T06:54:31;101564.31;;;12.33;100.00
35910;BME280;22004;49.120;-0.200;2023-11-21T06:56:56;101571.75;;;12.31;100.00
35910;BME280;22004;49.120;-0.200;2023-11-21T06:59:22;101571.34;;;12.58;100.00
35910;BME280;22004;49.120;-0.200;2023-11-21T07:01:47;101582.38;;;12.16;100.00
35910;BME280;22004;49.120;-0.200;2023-11-21T07:04:12;101573.94;;;12.27;100.00
35910;BME280;22004;49.120;-0.200;2023-11-21T07:06:37;101583.69;;;12.36;100.00
35910;BME280;22004;49.120;-0.200;2023-11-21T07:09:03;101582.59;;;12.70;100.00
35910;BME280;22004;49.120;-0.200;2023-11-21T07:11:28;101596.59;;;12.57;100.00
35910;BME280;22004;49.120;-0.200;2023-11-21T07:13:54;101598.84;;;11.80;100.00
35910;BME280;22004;49.120;-0.200;2023-11-21T07:16:20;101599.56;;;11.90;100.00
35910;BME280;22004;49.120;-0.200;2023-11-21T07:18:46;101597.38;;;12.10;100.00
35910;BME280;22004;49.120;-0.200;2023-11-21T07:21:11;101601.19;;;12.49;100.00
35910;BME280;22004;49.120;-0.200;2023-11-21T18:06:48;102318.88;;;12.36;100.00
35910;BME280;22004;49.120;-0.200;2023-11-21T18:09:14;102313.03;;;12.41;100.00
35910;BME280;22004;49.120;-0.200;2023-11-21T18:11:40;102314.09;;;12.30;100.00
35910;BME280;22004;49.120;-0.200;2023-11-21T18:14:06;102311.63;;;12.37;100.00
35910;BME280;22004;49.120;-0.200;2023-11-21T18:16:34;102317.66;;;12.49;100.00
35910;BME280;22004;49.120;-0.200;2023-11-21T18:19:02;102315.50;;;12.34;100.00
35910;BME280;22004;49.120;-0.200;2023-11-21T18:21:27;102325.25;;;12.18;100.00
35910;BME280;22004;49.120;-0.200;2023-11-21T18:23:53;102342.34;;;12.44;100.00
35910;BME280;22004;49.120;-0.200;2023-11-21T18:26:18;102349.59;;;12.44;100.00
35910;BME280;22004;49.120;-0.200;2023-11-21T18:28:44;102360.50;;;12.60;100.00
35910;BME280;22004;49.120;-0.200;2023-11-21T18:31:09;102367.97;;;12.30;100.00
35910;BME280;22004;49.120;-0.200;2023-11-21T18:33:34;102368.94;;;12.11;100.00
35910;BME280;22004;49.120;-0.200;2023-11-21T18:36:00;102370.56;;;12.22;100.00
35910;BME280;22004;49.120;-0.200;2023-11-21T18:38:25;102371.72;;;12.37;100.00
35910;BME280;22004;49.120;-0.200;2023-11-21T18:40:51;102372.91;;;11.80;100.00
35910;BME280;22004;49.120;-0.200;2023-11-21T18:43:16;102365.16;;;12.04;100.00
35910;BME280;22004;49.120;-0.200;2023-11-21T18:45:41;102366.41;;;12.10;100.00
35910;BME280;22004;49.120;-0.200;2023-11-21T18:48:08;102368.81;;;12.31;100.00
35910;BME280;22004;49.120;-0.200;2023-11-21T18:50:36;102363.75;;;12.00;100.00
35910;BME280;22004;49.120;-0.200;2023-11-21T18:53:01;102376.72;;;12.14;100.00
35910;BME280;22004;49.120;-0.200;2023-11-21T18:55:26;102393.06;;;12.03;100.00
35910;BME280;22004;49.120;-0.200;2023-11-21T18:57:52;102402.00;;;12.04;100.00
35910;BME280;22004;49.120;-0.200;2023-11-21T19:00:20;102411.28;;;12.19;100.00
35910;BME280;22004;49.120;-0.200;2023-11-21T19:02:45;102408.97;;;12.24;100.00
35910;BME280;22004;49.120;-0.200;2023-11-21T19:05:10;102394.56;;;12.15;100.00
35910;BME280;22004;49.120;-0.200;2023-11-21T19:07:36;102390.91;;;12.52;100.00
35910;BME280;22004;49.120;-0.200;2023-11-21T19:10:03;102388.06;;;12.54;100.00
35910;BME280;22004;49.120;-0.200;2023-11-21T19:12:30;102387.03;;;12.19;100.00
35910;BME280;22004;49.120;-0.200;2023-11-21T19:14:56;102393.09;;;12.21;100.00
35910;BME280;22004;49.120;-0.200;2023-11-21T19:17:22;102407.97;;;12.43;100.00
35910;BME280;22004;49.120;-0.200;2023-11-21T19:19:47;102398.75;;;12.46;100.00
35910;BME280;22004;49.120;-0.200;2023-11-21T19:22:13;102389.84;;;12.45;100.00
35910;BME280;22004;49.120;-0.200;2023-11-21T19:24:38;102391.28;;;12.57;100.00
35910;BME280;22004;49.120;-0.200;2023-11-21T19:27:04;102388.53;;;12.49;100.00
35910;BME280;22004;49.120;-0.200;2023-11-21T19:29:30;102385.06;;;12.57;100.00
35910;BME280;22004;49.120;-0.200;2023-11-21T19:31:56;102388.69;;;12.65;100.00
35910;BME280;22004;49.120;-0.200;2023-11-21T19:34:21;102391.75;;;12.53;100.00
35910;BME280;22004;49.120;-0.200;2023-11-21T19:36:47;102393.56;;;12.16;100.00
35910;BME280;22004;49.120;-0.200;2023-11-21T19:39:12;102396.91;;;12.82;100.00
35910;BME280;22004;49.120;-0.200;2023-11-21T19:41:38;102390.75;;;12.89;100.00
35910;BME280;22004;49.120;-0.200;2023-11-21T19:44:04;102393.38;;;12.99;100.00
35910;BME280;22004;49.120;-0.200;2023-11-21T19:46:30;102399.31;;;12.85;100.00
35910;BME280;22004;49.120;-0.200;2023-11-21T19:48:55;102395.31;;;12.71;100.00
35910;BME280;22004;49.120;-0.200;2023-11-21T19:51:21;102397.84;;;12.73;100.00
35910;BME280;22004;49.120;-0.200;2023-11-21T19:53:49;102404.91;;;12.38;100.00
35910;BME280;22004;49.120;-0.200;2023-11-21T19:56:15;102416.88;;;12.26;100.00
35910;BME280;22004;49.120;-0.200;2023-11-21T19:58:41;102423.13;;;12.26;100.00
35910;BME280;22004;49.120;-0.200;2023-11-21T20:01:07;102428.28;;;12.20;100.00
35910;BME280;22004;49.120;-0.200;2023-11-21T20:03:32;102429.63;;;12.33;100.00
35910;BME280;22004;49.120;-0.200;2023-11-21T20:06:00;102427.38;;;12.01;100.00
35910;BME280;22004;49.120;-0.200;2023-11-21T20:08:27;102424.47;;;12.12;100.00
35910;BME280;22004;49.120;-0.200;2023-11-21T20:10:56;102426.47;;;12.10;100.00
35910;BME280;22004;49.120;-0.200;2023-11-21T20:13:21;102429.94;;;11.93;100.00
35910;BME280;22004;49.120;-0.200;2023-11-21T20:15:46;102437.06;;;11.84;100.00
35910;BME280;22004;49.120;-0.200;2023-11-21T20:18:12;102439.69;;;12.04;100.00
35910;BME280;22004;49.120;-0.200;2023-11-21T20:20:37;102446.03;;;12.76;100.00
35910;BME280;22004;49.120;-0.200;2023-11-21T20:23:03;102444.72;;;12.44;100.00
35910;BME280;22004;49.120;-0.200;2023-11-21T20:25:28;102453.47;;;12.46;100.00
35910;BME280;22004;49.120;-0.200;2023-11-21T20:27:55;102459.09;;;12.53;100.00
35910;BME280;22004;49.120;-0.200;2023-11-21T20:30:20;102457.13;;;12.73;100.00
35910;BME280;22004;49.120;-0.200;2023-11-21T20:32:48;102451.00;;;12.35;100.00
35910;BME280;22004;49.120;-0.200;2023-11-21T20:35:16;102455.03;;;12.66;100.00
35910;BME280;22004;49.120;-0.200;2023-11-21T20:37:43;102453.84;;;12.79;100.00
35910;BME280;22004;49.120;-0.200;2023-11-21T20:40:09;102465.00;;;13.02;100.00
35910;BME280;22004;49.120;-0.200;2023-11-21T20:42:34;102463.50;;;13.07;100.00
35910;BME280;22004;49.120;-0.200;2023-11-21T20:45:00;102467.47;;;12.95;100.00
35910;BME280;22004;49.120;-0.200;2023-11-21T20:47:26;102463.44;;;12.63;100.00
35910;BME280;22004;49.120;-0.200;2023-11-21T20:49:51;102473.91;;;12.66;100.00
35910;BME280;22004;49.120;-0.200;2023-11-21T20:52:23;102474.31;;;12.89;100.00
35910;BME280;22004;49.120;-0.200;2023-11-21T20:54:49;102472.16;;;12.75;100.00
35910;BME280;22004;49.120;-0.200;2023-11-21T20:57:14;102481.63;;;12.97;100.00
35910;BME280;22004;49.120;-0.200;2023-11-21T20:59:40;102476.63;;;12.84;100.00
35910;BME280;22004;49.120;-0.200;2023-11-21T21:02:05;102478.88;;;12.16;100.00
35910;BME280;22004;49.120;-0.200;2023-11-21T21:04:31;102481.59;;;12.44;100.00
35910;BME280;22004;49.120;-0.200;2023-11-21T21:06:56;102493.28;;;12.52;100.00
35910;BME280;22004;49.120;-0.200;2023-11-21T21:09:22;102494.44;;;12.50;100.00
35910;BME280;22004;49.120;-0.200;2023-11-21T21:11:48;102507.66;;;12.15;100.00
35910;BME280;22004;49.120;-0.200;2023-11-21T21:14:14;102504.72;;;12.36;100.00
35910;BME280;22004;49.120;-0.200;2023-11-21T21:16:40;102516.91;;;12.68;100.00
35910;BME280;22004;49.120;-0.200;2023-11-21T21:19:06;102510.41;;;12.33;100.00
35910;BME280;22004;49.120;-0.200;2023-11-21T21:21:33;102523.25;;;12.67;100.00
35910;BME280;22004;49.120;-0.200;2023-11-21T21:23:58;102531.06;;;12.70;100.00
35910;BME280;22004;49.120;-0.200;2023-11-21T21:26:25;102541.09;;;12.50;100.00
35910;BME280;22004;49.120;-0.200;2023-11-21T21:28:50;102550.25;;;12.85;100.00
35910;BME280;22004;49.120;-0.200;2023-11-21T21:31:16;102548.19;;;12.97;100.00
35910;BME280;22004;49.120;-0.200;2023-11-21T21:33:41;102547.44;;;12.59;100.00
35910;BME280;22004;49.120;-0.200;2023-11-21T21:36:12;102553.19;;;12.36;100.00
35910;BME280;22004;49.120;-0.200;2023-11-21T21:38:38;102543.09;;;12.48;100.00
35910;BME280;22004;49.120;-0.200;2023-11-21T21:41:07;102550.22;;;12.39;100.00
35910;BME280;22004;49.120;-0.200;2023-11-21T21:43:32;102560.13;;;12.66;100.00
35910;BME280;22004;49.120;-0.200;2023-11-21T21:45:58;102566.22;;;12.96;100.00
35910;BME280;22004;49.120;-0.200;2023-11-21T21:48:23;102554.91;;;12.65;100.00
35910;BME280;22004;49.120;-0.200;2023-11-21T21:50:49;102558.06;;;13.06;100.00
35910;BME280;22004;49.120;-0.200;2023-11-21T21:53:15;102556.56;;;12.48;99.33
35910;BME280;22004;49.120;-0.200;2023-11-21T21:55:40;102557.56;;;12.75;100.00
35910;BME280;22004;49.120;-0.200;2023-11-21T21:58:06;102558.22;;;12.59;100.00
35910;BME280;22004;49.120;-0.200;2023-11-21T22:00:32;102554.03;;;12.92;100.00
35910;BME280;22004;49.120;-0.200;2023-11-21T22:02:58;102568.84;;;12.88;100.00
35910;BME280;22004;49.120;-0.200;2023-11-21T22:05:23;102568.09;;;12.68;99.70
35910;BME280;22004;49.120;-0.200;2023-11-21T22:07:49;102571.25;;;12.81;100.00
35910;BME280;22004;49.120;-0.200;2023-11-21T22:10:14;102560.47;;;12.26;100.00
35910;BME280;22004;49.120;-0.200;2023-11-21T22:12:40;102562.28;;;12.63;100.00
